Time;durP1;ratioP1;P1;durP2;ratioP2;P2;SDS_P1;SDS_P2;PMS_P1;PMS_P2;Temp;Humidity;BMP_temperature;BMP_pressure;BME280_temperature;BME280_humidity;BME280_pressure;Samples;Min_cycle;Max_cycle;Signal;HPM_P1;HPM_P2
2022/02/22 00:01:39;;;;;;;36.03;20.10;;;;;;;9.94;75.62;98600.94;5051935;28;20025;-38
2022/02/22 00:04:05;;;;;;;33.20;19.83;;;;;;;9.92;76.20;98610.19;5051697;28;20029;-39
2022/02/22 00:06:30;;;;;;;32.85;20.50;;;;;;;9.79;76.84;98609.31;5052126;28;20025;-50
2022/02/22 00:08:56;;;;;;;32.15;19.42;;;;;;;9.91;76.57;98601.38;5060263;28;20097;-50
2022/02/22 00:11:25;;;;;;;32.67;19.77;;;;;;;9.81;76.59;98589.69;5071603;28;20633;-48
2022/02/22 00:13:51;;;;;;;34.22;20.55;;;;;;;9.75;76.53;98557.69;5071625;28;20032;-48
2022/02/22 00:16:16;;;;;;;35.78;21.63;;;;;;;10.06;75.80;98582.34;5071886;28;20028;-51
2022/02/22 00:18:42;;;;;;;32.78;19.23;;;;;;;10.11;75.51;98584.31;5071593;28;20667;-48
2022/02/22 00:21:08;;;;;;;31.50;18.88;;;;;;;9.90;76.32;98588.31;5071862;28;20044;-49
2022/02/22 00:23:33;;;;;;;32.53;19.15;;;;;;;9.88;76.50;98593.03;5071586;28;20093;-49
2022/02/22 00:25:59;;;;;;;31.13;18.42;;;;;;;9.83;77.09;98585.75;5071601;28;20024;-50
2022/02/22 00:28:24;;;;;;;36.83;18.48;;;;;;;10.06;76.50;98585.00;5071377;28;20036;-49
2022/02/22 00:30:50;;;;;;;32.50;18.58;;;;;;;10.02;75.76;98575.88;5071167;28;20054;-49
2022/02/22 00:33:15;;;;;;;33.35;19.63;;;;;;;10.00;76.38;98580.63;5071377;28;20113;-48
2022/02/22 00:35:41;;;;;;;31.90;19.50;;;;;;;9.94;76.35;98578.88;5054313;28;20024;-49
2022/02/22 00:38:07;;;;;;;29.67;18.83;;;;;;;9.87;76.71;98578.16;5071840;28;20029;-48
2022/02/22 00:40:32;;;;;;;30.98;19.10;;;;;;;9.95;75.59;98585.78;5071860;28;20034;-52
2022/02/22 00:42:58;;;;;;;30.73;18.45;;;;;;;9.76;77.09;98579.72;5071918;28;20017;-49
2022/02/22 00:45:23;;;;;;;30.05;18.35;;;;;;;9.70;76.99;98588.59;5072068;28;20078;-49
2022/02/22 00:47:49;;;;;;;33.58;19.52;;;;;;;9.73;76.81;98588.97;5072042;28;20400;-50
2022/02/22 00:50:14;;;;;;;32.78;19.90;;;;;;;9.67;76.00;98563.31;5071746;28;20043;-49
2022/02/22 00:52:40;;;;;;;38.85;21.65;;;;;;;9.85;75.24;98569.59;5071712;28;20028;-49
2022/02/22 00:55:06;;;;;;;46.58;25.83;;;;;;;9.82;74.21;98567.38;5057218;28;20453;-50
2022/02/22 00:57:32;;;;;;;41.25;25.10;;;;;;;9.62;74.67;98568.50;5051669;28;20461;-49
2022/02/22 00:59:57;;;;;;;41.33;24.13;;;;;;;9.43;75.76;98564.25;5052171;28;20029;-48
2022/02/22 01:02:23;;;;;;;43.40;24.52;;;;;;;9.53;75.19;98561.88;5051504;28;20107;-51
2022/02/22 01:04:48;;;;;;;41.20;26.15;;;;;;;9.47;74.55;98558.25;5051616;28;20040;-52
2022/02/22 01:07:16;;;;;;;49.28;27.00;;;;;;;9.32;74.79;98553.34;5051997;28;20037;-52
2022/02/22 01:09:45;;;;;;;49.28;28.63;;;;;;;9.34;74.54;98553.94;5066257;28;20388;-48
2022/02/22 01:12:11;;;;;;;51.60;28.92;;;;;;;9.48;73.82;98551.09;5071385;28;20111;-48
2022/02/22 01:14:36;;;;;;;49.15;28.52;;;;;;;9.36;74.33;98549.22;5070651;28;20028;-49
2022/02/22 01:17:02;;;;;;;56.92;28.90;;;;;;;9.39;73.91;98548.78;5071746;28;20429;-51
2022/02/22 01:19:28;;;;;;;53.03;28.65;;;;;;;9.41;73.70;98551.19;5071340;28;20456;-49
2022/02/22 01:21:53;;;;;;;55.83;29.85;;;;;;;9.39;73.45;98546.13;5071171;28;20167;-51
2022/02/22 01:24:19;;;;;;;53.22;28.95;;;;;;;9.29;73.49;98545.84;5071446;28;20530;-50
2022/02/22 01:26:44;;;;;;;51.47;29.45;;;;;;;9.26;74.27;98551.59;5071647;28;20032;-49
2022/02/22 01:29:09;;;;;;;57.20;31.08;;;;;;;9.32;73.82;98545.38;5071241;28;20028;-50
2022/02/22 01:31:35;;;;;;;53.25;31.10;;;;;;;9.44;73.22;98539.31;5071072;28;20043;-49
2022/02/22 01:34:01;;;;;;;57.10;32.53;;;;;;;9.35;73.54;98541.50;5071031;28;20032;-49
2022/02/22 01:36:27;;;;;;;54.33;31.13;;;;;;;9.20;73.92;98539.22;5071086;28;20021;-48
2022/02/22 01:38:53;;;;;;;52.42;30.33;;;;;;;9.38;73.02;98533.06;5071189;28;20024;-48
2022/02/22 01:41:21;;;;;;;54.72;31.52;;;;;;;9.34;73.10;98523.94;5067004;28;20404;-49
2022/02/22 01:43:47;;;;;;;53.13;32.10;;;;;;;9.22;73.12;98518.56;5050805;28;20024;-48
2022/02/22 01:46:13;;;;;;;62.05;30.75;;;;;;;9.03;74.27;98511.69;5051095;28;20643;-48
2022/02/22 01:48:38;;;;;;;54.13;31.00;;;;;;;8.92;75.13;98507.94;5051317;28;20025;-48
2022/02/22 01:51:04;;;;;;;56.35;32.55;;;;;;;8.95;74.52;98499.53;5050990;28;20028;-48
2022/02/22 01:53:29;;;;;;;54.45;32.67;;;;;;;9.07;74.29;98495.06;5051137;28;20032;-49
2022/02/22 01:55:55;;;;;;;53.40;31.95;;;;;;;8.86;74.99;98485.75;5050864;28;20393;-48
2022/02/22 01:58:20;;;;;;;55.25;31.33;;;;;;;8.86;75.08;98499.00;5032886;28;20028;-49
2022/02/22 02:00:48;;;;;;;50.97;30.13;;;;;;;8.63;76.32;98490.94;5032925;28;20029;-48
2022/02/22 02:03:14;;;;;;;51.80;30.50;;;;;;;8.52;76.19;98503.06;5050880;28;20066;-50
2022/02/22 02:05:39;;;;;;;52.85;30.50;;;;;;;8.54;76.25;98501.81;5050732;28;20045;-49
2022/02/22 02:08:05;;;;;;;58.15;33.05;;;;;;;8.43;77.14;98504.38;5052621;28;20036;-47
2022/02/22 02:10:30;;;;;;;63.92;34.88;;;;;;;8.87;76.87;98507.78;5071236;28;20024;-48
2022/02/22 02:12:56;;;;;;;57.65;34.47;;;;;;;9.47;73.32;98504.34;5070873;28;20143;-48
2022/02/22 02:15:21;;;;;;;62.42;33.35;;;;;;;9.13;73.95;98517.25;5052655;28;20028;-48
2022/02/22 02:17:47;;;;;;;60.45;31.88;;;;;;;8.63;75.25;98518.25;5050901;28;20111;-48
2022/02/22 02:20:12;;;;;;;59.75;33.90;;;;;;;8.65;75.32;98520.69;5050619;28;20380;-48
2022/02/22 02:22:38;;;;;;;64.50;33.60;;;;;;;8.35;76.25;98495.66;5068176;28;20055;-48
2022/02/22 02:25:05;;;;;;;58.65;33.97;;;;;;;8.94;75.69;98500.56;5070208;28;20052;-48
2022/02/22 02:27:31;;;;;;;59.20;31.80;;;;;;;9.42;72.53;98504.22;5073697;28;20031;-50
2022/02/22 02:29:59;;;;;;;54.42;31.65;;;;;;;8.53;75.73;98505.50;5074085;28;20036;-50
2022/02/22 02:32:28;;;;;;;56.53;30.92;;;;;;;8.44;75.74;98504.16;5073548;28;20444;-49
2022/02/22 02:34:53;;;;;;;57.58;31.70;;;;;;;8.34;76.50;98514.41;5073593;28;20024;-51
2022/02/22 02:37:19;;;;;;;55.67;32.47;;;;;;;8.00;77.87;98511.28;5074045;28;20479;-50
2022/02/22 02:39:44;;;;;;;62.25;34.72;;;;;;;7.89;79.48;98499.53;5073932;28;20036;-48
2022/02/22 02:42:10;;;;;;;60.47;35.08;;;;;;;9.06;75.58;98500.59;5073890;28;20031;-52
2022/02/22 02:44:36;;;;;;;57.63;33.13;;;;;;;8.43;76.24;98507.84;5074265;28;20491;-51
2022/02/22 02:47:02;;;;;;;60.67;33.72;;;;;;;8.20;77.79;98503.94;5073840;28;20024;-51
2022/02/22 02:49:28;;;;;;;59.80;33.22;;;;;;;7.83;79.17;98500.41;5073820;28;20081;-49
2022/02/22 02:51:53;;;;;;;61.67;35.00;;;;;;;7.86;79.10;98499.16;5073872;28;20029;-49
2022/02/22 02:54:18;;;;;;;60.67;34.10;;;;;;;7.74;80.41;98496.41;5073399;28;20392;-48
2022/02/22 02:56:44;;;;;;;55.75;32.38;;;;;;;8.81;75.72;98506.81;5073573;28;20036;-48
2022/02/22 02:59:10;;;;;;;59.13;33.13;;;;;;;8.38;76.15;98508.47;5073691;28;20024;-47
2022/02/22 03:01:36;;;;;;;54.35;31.85;;;;;;;8.01;77.92;98504.94;5073451;28;20028;-47
2022/02/22 03:04:02;;;;;;;55.42;30.83;;;;;;;7.81;79.72;98499.81;5073479;28;20031;-48
2022/02/22 03:06:28;;;;;;;53.50;30.58;;;;;;;7.77;80.20;98506.56;5073639;28;20036;-48
2022/02/22 03:08:53;;;;;;;55.38;30.90;;;;;;;7.90;81.09;98506.47;5065109;28;20389;-48
2022/02/22 03:11:19;;;;;;;58.65;33.42;;;;;;;8.67;77.91;98511.47;5053135;28;20035;-48
2022/02/22 03:13:44;;;;;;;58.40;32.22;;;;;;;8.35;77.31;98502.78;5053220;28;20493;-48
2022/02/22 03:16:10;;;;;;;53.47;30.48;;;;;;;7.91;80.21;98502.78;5053145;28;20075;-49
2022/02/22 03:18:35;;;;;;;53.97;31.55;;;;;;;7.95;81.29;98496.00;5053175;28;20044;-48
2022/02/22 03:21:01;;;;;;;55.22;31.38;;;;;;;7.97;80.22;98506.41;5036127;28;20081;-49
2022/02/22 03:23:27;;;;;;;51.05;30.23;;;;;;;7.82;81.01;98501.41;5053024;28;20048;-49
2022/02/22 03:25:52;;;;;;;51.25;32.13;;;;;;;8.50;80.14;98508.59;5053132;28;20063;-49
2022/02/22 03:28:18;;;;;;;49.42;30.00;;;;;;;8.55;78.47;98508.75;5052907;28;20025;-51
2022/02/22 03:30:44;;;;;;;53.65;30.85;;;;;;;8.01;78.85;98516.38;5052835;28;20453;-48
2022/02/22 03:33:10;;;;;;;57.05;30.00;;;;;;;7.59;79.52;98513.38;5052855;28;20123;-49
2022/02/22 03:35:36;;;;;;;55.13;30.08;;;;;;;7.33;80.18;98501.16;5052768;28;20032;-49
2022/02/22 03:38:01;;;;;;;53.15;31.05;;;;;;;7.26;81.26;98520.75;5052200;28;20024;-50
2022/02/22 03:40:27;;;;;;;56.10;31.55;;;;;;;7.52;83.10;98527.69;5052832;28;20037;-49
2022/02/22 03:42:52;;;;;;;57.35;32.42;;;;;;;8.09;81.03;98539.13;5052954;28;20021;-49
2022/02/22 03:45:18;;;;;;;56.30;31.63;;;;;;;7.57;81.58;98533.16;5052891;28;20025;-51
2022/02/22 03:47:43;;;;;;;53.92;29.65;;;;;;;7.50;81.14;98537.69;5053250;28;20029;-49
2022/02/22 03:50:10;;;;;;;50.95;29.08;;;;;;;7.42;81.59;98534.28;5052751;28;20056;-49
2022/02/22 03:52:35;;;;;;;53.60;30.55;;;;;;;7.42;82.39;98539.59;5052482;28;20025;-49
2022/02/22 03:55:01;;;;;;;54.20;33.03;;;;;;;7.75;84.64;98540.38;5052486;28;20032;-50
2022/02/22 03:57:26;;;;;;;57.60;32.60;;;;;;;8.31;82.59;98534.22;5052536;28;20510;-49
2022/02/22 03:59:52;;;;;;;49.22;29.95;;;;;;;8.05;81.71;98535.25;5052521;28;20017;-51
2022/02/22 04:02:17;;;;;;;52.80;29.55;;;;;;;7.82;81.39;98530.56;5052844;28;20024;-49
2022/02/22 04:04:43;;;;;;;57.45;31.17;;;;;;;7.69;82.35;98531.47;5052408;28;20384;-50
2022/02/22 04:07:08;;;;;;;53.05;29.77;;;;;;;7.61;83.10;98529.88;5052294;28;20021;-49
2022/02/22 04:09:34;;;;;;;57.33;32.58;;;;;;;8.17;82.06;98533.53;5066108;28;20081;-50
2022/02/22 04:11:59;;;;;;;60.83;34.47;;;;;;;8.97;78.04;98531.97;5072520;28;20456;-48
2022/02/22 04:14:24;;;;;;;58.13;34.53;;;;;;;8.44;77.32;98532.53;5062225;28;20048;-50
2022/02/22 04:16:50;;;;;;;64.80;34.50;;;;;;;8.26;77.93;98536.72;5051876;28;20131;-49
2022/02/22 04:19:16;;;;;;;63.70;35.05;;;;;;;7.75;80.07;98541.22;5052089;28;20028;-49
2022/02/22 04:21:42;;;;;;;65.38;35.38;;;;;;;7.66;81.20;98545.13;5052117;28;20133;-48
2022/02/22 04:24:07;;;;;;;71.53;35.90;;;;;;;7.36;81.60;98535.13;5051639;28;20404;-49
2022/02/22 04:26:33;;;;;;;60.13;33.90;;;;;;;7.26;81.17;98531.31;5051918;28;20025;-49
2022/02/22 04:29:00;;;;;;;62.80;34.08;;;;;;;7.03;82.00;98538.72;5051502;28;20024;-49
2022/02/22 04:31:29;;;;;;;62.10;34.30;;;;;;;6.98;82.27;98527.97;5051567;28;20031;-52
2022/02/22 04:33:54;;;;;;;67.80;37.67;;;;;;;7.18;84.02;98540.31;5033770;28;20024;-48
2022/02/22 04:36:20;;;;;;;123.88;60.75;;;;;;;8.03;81.10;98535.50;5051518;28;20108;-48
2022/02/22 04:38:45;;;;;;;102.85;53.13;;;;;;;7.59;79.74;98539.88;5051433;28;20036;-48
2022/02/22 04:41:11;;;;;;;90.40;48.97;;;;;;;7.44;79.36;98534.88;5051655;28;20477;-49
2022/02/22 04:43:36;;;;;;;125.20;61.38;;;;;;;7.19;79.94;98533.97;5051360;28;20138;-48
2022/02/22 04:46:02;;;;;;;69.60;38.80;;;;;;;7.07;80.45;98523.25;5051627;28;20021;-48
2022/02/22 04:48:27;;;;;;;66.60;37.45;;;;;;;7.15;80.58;98532.78;5051795;28;20032;-49
2022/02/22 04:50:52;;;;;;;67.55;38.75;;;;;;;7.86;79.43;98533.59;5050719;28;20468;-49
2022/02/22 04:53:18;;;;;;;73.60;37.20;;;;;;;7.63;78.71;98530.50;5051270;28;20025;-49
2022/02/22 04:55:43;;;;;;;68.75;37.10;;;;;;;7.44;78.86;98528.75;5051340;28;20039;-53
2022/02/22 04:58:09;;;;;;;68.38;37.22;;;;;;;7.12;79.59;98531.38;5051383;28;20025;-50
2022/02/22 05:00:34;;;;;;;67.80;37.95;;;;;;;6.91;80.67;98535.13;5051138;28;20538;-49
2022/02/22 05:03:00;;;;;;;70.22;37.63;;;;;;;6.87;80.46;98536.53;5033063;28;20446;-51
2022/02/22 05:05:25;;;;;;;67.40;37.75;;;;;;;7.37;80.46;98552.63;5051335;28;20354;-49
2022/02/22 05:07:51;;;;;;;69.53;37.70;;;;;;;7.66;78.66;98557.56;5051006;28;20064;-50
2022/02/22 05:10:16;;;;;;;61.70;35.10;;;;;;;7.11;79.43;98553.56;5070620;28;20104;-49
2022/02/22 05:12:42;;;;;;;67.22;36.13;;;;;;;7.34;82.21;98550.41;5070617;28;20408;-50
2022/02/22 05:15:07;;;;;;;66.70;34.72;;;;;;;7.05;79.70;98546.47;5054911;28;20025;-50
2022/02/22 05:17:33;;;;;;;70.57;38.10;;;;;;;6.91;80.99;98556.28;5050994;28;20016;-51
2022/02/22 05:19:59;;;;;;;72.07;39.88;;;;;;;6.83;81.87;98557.34;5050820;28;20453;-49
2022/02/22 05:22:24;;;;;;;69.68;38.88;;;;;;;7.75;78.81;98554.44;5050377;28;20053;-50
2022/02/22 05:24:50;;;;;;;70.57;38.40;;;;;;;7.17;79.36;98565.13;5050386;28;20021;-52
2022/02/22 05:27:15;;;;;;;70.22;36.55;;;;;;;6.92;81.31;98571.13;5050562;28;20071;-49
2022/02/22 05:29:40;;;;;;;72.93;38.17;;;;;;;6.73;81.04;98578.09;5050071;28;20028;-49
2022/02/22 05:32:06;;;;;;;72.20;38.15;;;;;;;6.82;82.20;98576.03;5050087;28;20032;-48
2022/02/22 05:34:35;;;;;;;77.53;41.40;;;;;;;7.05;80.74;98572.91;5032749;28;20036;-49
2022/02/22 05:37:01;;;;;;;80.43;40.90;;;;;;;7.53;78.43;98569.84;5047750;28;20032;-50
2022/02/22 05:39:27;;;;;;;120.15;59.08;;;;;;;7.78;78.50;98583.13;5050039;28;20021;-50
2022/02/22 05:41:52;;;;;;;87.82;44.65;;;;;;;7.29;78.84;98587.28;5050079;28;20009;-52
2022/02/22 05:44:18;;;;;;;71.80;38.00;;;;;;;7.15;79.10;98580.41;5049758;28;20461;-50
2022/02/22 05:46:43;;;;;;;68.57;36.85;;;;;;;7.08;79.44;98575.13;5049589;28;20017;-50
2022/02/22 05:49:09;;;;;;;67.10;34.15;;;;;;;7.08;79.45;98587.56;5049618;28;20025;-49
2022/02/22 05:51:34;;;;;;;64.85;35.67;;;;;;;6.76;80.19;98569.75;5049499;28;20020;-51
2022/02/22 05:54:00;;;;;;;68.93;36.38;;;;;;;7.55;79.72;98599.56;5049755;28;20476;-49
2022/02/22 05:56:25;;;;;;;67.53;36.25;;;;;;;7.53;78.55;98595.50;5050323;28;20384;-49
2022/02/22 05:58:50;;;;;;;65.68;34.67;;;;;;;7.09;80.47;98599.78;5049506;28;20025;-51
2022/02/22 06:01:16;;;;;;;64.07;35.75;;;;;;;7.13;81.66;98608.91;5052067;28;20037;-52
2022/02/22 06:03:42;;;;;;;64.25;34.92;;;;;;;7.14;81.26;98599.94;5063799;28;20016;-51
2022/02/22 06:06:07;;;;;;;69.18;35.63;;;;;;;7.24;80.68;98617.00;5062333;28;20484;-50
2022/02/22 06:08:32;;;;;;;63.90;37.08;;;;;;;7.29;80.97;98618.22;5058561;28;20029;-50
2022/02/22 06:10:58;;;;;;;186.68;94.40;;;;;;;7.29;81.50;98619.03;5057088;28;20029;-52
2022/02/22 06:13:23;;;;;;;73.57;40.00;;;;;;;7.40;80.70;98626.31;5062254;28;20028;-50
2022/02/22 06:15:49;;;;;;;67.88;36.58;;;;;;;7.58;79.90;98627.47;5064183;28;20128;-50
2022/02/22 06:18:17;;;;;;;67.35;35.63;;;;;;;7.88;78.48;98625.06;5058797;28;20573;-52
2022/02/22 06:20:44;;;;;;;62.40;35.60;;;;;;;8.23;76.60;98630.72;5062796;28;20033;-48
2022/02/22 06:23:10;;;;;;;71.57;38.75;;;;;;;8.35;76.25;98622.88;5048352;28;20041;-51
2022/02/22 06:25:36;;;;;;;70.97;38.92;;;;;;;8.48;75.20;98623.84;5062276;28;20028;-51
2022/02/22 06:28:02;;;;;;;72.68;40.47;;;;;;;8.55;74.79;98624.63;5059031;28;20408;-51
2022/02/22 06:30:27;;;;;;;68.43;38.75;;;;;;;8.55;74.86;98614.81;5062026;28;20028;-50
2022/02/22 06:32:54;;;;;;;77.90;40.97;;;;;;;8.51;74.19;98620.75;5058763;28;20413;-49
2022/02/22 06:35:19;;;;;;;78.13;41.95;;;;;;;8.48;74.94;98629.97;5053449;28;20130;-51
2022/02/22 06:37:45;;;;;;;73.88;39.90;;;;;;;8.34;75.70;98623.94;5053723;28;20144;-48
2022/02/22 06:40:10;;;;;;;72.57;39.60;;;;;;;8.96;74.71;98618.69;5053564;28;20029;-50
2022/02/22 06:42:36;;;;;;;61.92;35.90;;;;;;;9.43;71.44;98620.03;5053727;28;20033;-49
2022/02/22 06:45:06;;;;;;;63.58;35.50;;;;;;;9.16;72.20;98615.03;5053885;28;20112;-49
2022/02/22 06:47:31;;;;;;;59.97;35.85;;;;;;;8.98;73.10;98624.59;5050273;28;20040;-49
2022/02/22 06:49:56;;;;;;;63.78;36.35;;;;;;;9.03;73.02;98621.28;5053535;28;20037;-51
2022/02/22 06:52:22;;;;;;;62.25;35.17;;;;;;;9.13;73.31;98626.06;5044729;28;20116;-52
2022/02/22 06:54:47;;;;;;;53.95;32.67;;;;;;;9.18;73.11;98626.22;5033348;28;20457;-50
2022/02/22 06:57:13;;;;;;;51.22;30.15;;;;;;;8.96;73.96;98623.19;5033718;28;20104;-50
2022/02/22 06:59:38;;;;;;;45.30;29.85;;;;;;;9.09;73.63;98630.22;5051716;28;20503;-48
2022/02/22 07:02:04;;;;;;;77.90;43.55;;;;;;;9.30;72.88;98637.72;5053080;28;20102;-51
2022/02/22 07:04:30;;;;;;;102.47;57.10;;;;;;;9.41;72.98;98635.38;5052877;28;20055;-49
2022/02/22 07:06:55;;;;;;;76.03;45.65;;;;;;;10.37;69.80;98618.50;5052317;28;20077;-51
2022/02/22 07:09:20;;;;;;;60.10;34.60;;;;;;;10.49;68.96;98625.66;5064481;28;20614;-49
2022/02/22 07:11:46;;;;;;;54.42;31.40;;;;;;;10.79;66.88;98622.09;5072326;28;20032;-52
2022/02/22 07:14:11;;;;;;;59.78;36.10;;;;;;;10.94;66.90;98614.47;5055721;28;20024;-48
2022/02/22 07:16:37;;;;;;;76.50;42.53;;;;;;;11.37;65.42;98623.09;5052059;28;20021;-48
2022/02/22 07:19:03;;;;;;;56.03;30.70;;;;;;;11.61;64.57;98621.13;5051447;28;20453;-49
2022/02/22 07:21:28;;;;;;;55.28;30.70;;;;;;;12.08;63.20;98620.97;5053858;28;20052;-51
2022/02/22 07:23:53;;;;;;;50.38;31.60;;;;;;;12.38;61.88;98612.66;5052064;28;20051;-52
2022/02/22 07:26:19;;;;;;;55.63;32.08;;;;;;;12.76;61.49;98613.75;5051914;28;20130;-51
2022/02/22 07:28:44;;;;;;;63.58;36.40;;;;;;;13.07;61.34;98609.63;5051836;28;20052;-51
2022/02/22 07:31:11;;;;;;;56.63;35.08;;;;;;;13.29;59.75;98623.03;5052222;28;20029;-53
2022/02/22 07:33:38;;;;;;;56.72;35.67;;;;;;;13.80;57.39;98617.50;5052347;28;20044;-49
2022/02/22 07:36:04;;;;;;;62.92;35.40;;;;;;;14.18;56.23;98613.00;5018049;28;20024;-51
2022/02/22 07:38:30;;;;;;;58.88;37.80;;;;;;;14.47;55.35;98613.53;5052159;28;20017;-49
2022/02/22 07:40:56;;;;;;;56.30;36.50;;;;;;;14.40;55.22;98620.97;5034110;28;20715;-49
2022/02/22 07:43:21;;;;;;;59.60;36.22;;;;;;;14.22;55.93;98618.66;5052021;28;20025;-50
2022/02/22 07:45:47;;;;;;;69.80;38.92;;;;;;;14.45;55.29;98617.53;5051812;28;20033;-49
2022/02/22 07:48:12;;;;;;;79.13;46.78;;;;;;;14.35;54.87;98614.75;5051682;28;20021;-50
2022/02/22 07:50:38;;;;;;;78.50;45.45;;;;;;;14.65;54.04;98624.91;5051682;28;20421;-51
2022/02/22 07:53:04;;;;;;;80.28;43.38;;;;;;;14.50;53.83;98624.78;5051944;28;20032;-50
2022/02/22 07:55:30;;;;;;;73.72;41.67;;;;;;;14.55;53.82;98617.59;5051719;28;20403;-49
2022/02/22 07:57:55;;;;;;;72.68;40.17;;;;;;;15.06;54.16;98622.50;5051658;28;20029;-48
2022/02/22 08:00:20;;;;;;;69.18;39.17;;;;;;;14.91;53.33;98619.72;5051134;28;20021;-49
2022/02/22 08:02:46;;;;;;;77.10;42.03;;;;;;;14.66;53.88;98615.84;5051150;28;20095;-49
2022/02/22 08:05:12;;;;;;;66.65;38.15;;;;;;;14.55;55.03;98612.25;5051286;28;20059;-48
2022/02/22 08:07:37;;;;;;;66.53;39.20;;;;;;;14.60;54.72;98615.00;5050972;28;20029;-49
2022/02/22 08:10:07;;;;;;;91.00;50.45;;;;;;;14.28;55.19;98607.75;5068812;28;20028;-51
2022/02/22 08:12:32;;;;;;;81.43;47.78;;;;;;;14.20;55.41;98605.56;5071312;28;20403;-50
2022/02/22 08:14:58;;;;;;;86.50;48.88;;;;;;;14.32;55.28;98605.38;5056831;28;20029;-52
2022/02/22 08:17:23;;;;;;;67.28;37.17;;;;;;;14.50;55.29;98606.84;5050877;28;20032;-49
2022/02/22 08:19:49;;;;;;;60.85;32.28;;;;;;;14.48;56.73;98611.66;5051330;28;20388;-48
2022/02/22 08:22:14;;;;;;;57.78;35.22;;;;;;;14.79;55.71;98606.53;5045452;28;20581;-52
2022/02/22 08:24:40;;;;;;;52.90;30.98;;;;;;;15.18;54.27;98615.06;5070453;28;20085;-49
2022/02/22 08:27:05;;;;;;;42.50;26.85;;;;;;;15.11;55.40;98609.13;5070861;28;20024;-49
2022/02/22 08:29:31;;;;;;;50.67;29.65;;;;;;;14.78;55.91;98608.41;5070796;28;20028;-49
2022/02/22 08:31:57;;;;;;;54.38;29.70;;;;;;;14.79;55.80;98602.00;5070868;28;20438;-49
2022/02/22 08:34:22;;;;;;;43.92;27.45;;;;;;;14.30;58.20;98601.31;5070652;28;20039;-49
2022/02/22 08:36:48;;;;;;;43.75;25.55;;;;;;;14.72;56.49;98601.41;5070909;28;20024;-48
2022/02/22 08:39:13;;;;;;;42.53;26.02;;;;;;;14.37;58.01;98599.25;5070899;28;20031;-48
2022/02/22 08:41:39;;;;;;;49.67;26.13;;;;;;;14.74;57.27;98596.59;5070881;28;20472;-48
2022/02/22 08:44:05;;;;;;;39.40;23.35;;;;;;;14.71;56.98;98602.47;5070553;28;20532;-48
2022/02/22 08:46:30;;;;;;;29.73;20.08;;;;;;;14.10;59.21;98597.44;5070800;28;20031;-47
2022/02/22 08:48:56;;;;;;;32.80;22.08;;;;;;;14.41;58.83;98603.03;5071007;28;20028;-49
2022/02/22 08:51:21;;;;;;;32.28;20.35;;;;;;;14.34;59.15;98595.22;5052751;28;20484;-49
2022/02/22 08:53:47;;;;;;;27.88;18.98;;;;;;;15.00;57.76;98591.38;5070730;28;20028;-51
2022/02/22 08:56:13;;;;;;;26.85;17.38;;;;;;;15.23;56.62;98606.22;5070872;28;20024;-48
2022/02/22 08:58:38;;;;;;;28.08;18.55;;;;;;;15.19;57.35;98605.97;5070943;28;20037;-49
2022/02/22 09:01:04;;;;;;;26.08;17.75;;;;;;;15.21;57.15;98595.78;5069754;28;20126;-51
2022/02/22 09:03:29;;;;;;;28.38;17.73;;;;;;;15.16;57.81;98603.00;5070294;28;20021;-48
2022/02/22 09:05:55;;;;;;;22.85;15.15;;;;;;;14.89;57.57;98600.41;5085346;28;20039;-47
2022/02/22 09:08:21;;;;;;;27.15;16.33;;;;;;;15.15;57.12;98596.00;5086545;28;20099;-48
2022/02/22 09:10:47;;;;;;;26.33;17.15;;;;;;;15.13;57.34;98598.94;5070784;28;20116;-48
2022/02/22 09:13:13;;;;;;;25.55;16.25;;;;;;;14.98;58.14;98588.97;5070871;28;20028;-49
2022/02/22 09:15:39;;;;;;;24.23;16.42;;;;;;;15.61;56.47;98593.50;5070770;28;20036;-50
2022/02/22 09:18:04;;;;;;;24.67;15.80;;;;;;;15.47;56.25;98597.75;5070977;28;20025;-48
2022/02/22 09:20:30;;;;;;;22.70;13.95;;;;;;;14.80;57.46;98614.31;5071003;28;20029;-50
2022/02/22 09:22:56;;;;;;;22.85;14.82;;;;;;;14.83;58.44;98603.09;5052631;28;20107;-39
2022/02/22 09:25:21;;;;;;;25.60;14.82;;;;;;;14.65;59.03;98606.97;5050298;28;20049;-39
2022/02/22 09:27:47;;;;;;;26.50;15.80;;;;;;;15.02;58.05;98605.31;5047051;28;20070;-39
2022/02/22 09:30:17;;;;;;;19.20;13.07;;;;;;;15.13;57.26;98604.31;5049118;28;20033;-38
2022/02/22 09:32:43;;;;;;;19.70;13.38;;;;;;;14.89;57.44;98611.97;5050271;28;20031;-39
2022/02/22 09:35:08;;;;;;;20.25;13.50;;;;;;;15.22;57.61;98609.97;5050433;28;20029;-39
2022/02/22 09:37:34;;;;;;;19.98;12.90;;;;;;;15.85;55.51;98607.25;5054635;28;20021;-38
2022/02/22 09:40:00;;;;;;;21.63;14.63;;;;;;;16.29;54.97;98614.00;5050289;28;20017;-39
2022/02/22 09:42:26;;;;;;;23.45;14.90;;;;;;;16.82;53.02;98617.22;5050704;28;20037;-40
2022/02/22 09:44:51;;;;;;;16.88;12.57;;;;;;;16.88;51.92;98618.81;5032722;28;20028;-39
2022/02/22 09:47:17;;;;;;;20.42;13.27;;;;;;;16.99;52.17;98623.09;5054843;28;20100;-38
2022/02/22 09:49:42;;;;;;;17.25;12.82;;;;;;;16.93;52.24;98615.34;5050412;28;20397;-39
2022/02/22 09:52:08;;;;;;;21.75;12.43;;;;;;;17.03;51.59;98615.28;5050615;28;20029;-37
2022/02/22 09:54:34;;;;;;;20.48;13.23;;;;;;;16.45;52.63;98617.50;5050730;28;20021;-39
2022/02/22 09:57:00;;;;;;;18.20;13.30;;;;;;;16.53;52.76;98615.09;5050588;28;20111;-38
2022/02/22 09:59:25;;;;;;;17.02;13.43;;;;;;;16.71;52.89;98618.28;5050679;28;20036;-38
2022/02/22 10:01:52;;;;;;;19.90;13.45;;;;;;;16.97;50.88;98581.47;5049160;28;20390;-38
2022/02/22 10:04:17;;;;;;;19.00;12.90;;;;;;;16.98;51.96;98620.66;5061573;28;20051;-39
2022/02/22 10:06:43;;;;;;;19.33;12.70;;;;;;;17.18;52.13;98615.25;5050889;28;20478;-38
2022/02/22 10:09:11;;;;;;;18.13;13.10;;;;;;;17.61;50.22;98627.44;5058600;28;20025;-38
2022/02/22 10:11:55;;;;;;;19.20;12.68;;;;;;;17.38;50.71;98616.25;5048582;28;20369;-38
2022/02/22 10:14:30;;;;;;;22.02;12.85;;;;;;;17.41;49.97;98615.69;5049585;28;20033;-37
2022/02/22 10:16:57;;;;;;;20.63;13.38;;;;;;;17.11;50.47;98616.63;5049576;28;20029;-39
2022/02/22 10:19:29;;;;;;;18.23;13.45;;;;;;;16.26;53.06;98614.53;5049023;28;20534;-38
2022/02/22 10:21:57;;;;;;;21.55;14.05;;;;;;;16.59;53.28;98610.50;5058226;28;20527;-39
2022/02/22 10:24:27;;;;;;;20.17;14.03;;;;;;;16.58;52.42;98619.63;5068415;28;20037;-38
2022/02/22 10:27:06;;;;;;;17.73;13.32;;;;;;;16.74;52.39;98612.38;5069489;28;20029;-40
2022/02/22 10:29:32;;;;;;;22.88;14.70;;;;;;;16.27;52.68;98618.84;5069796;28;20039;-38
2022/02/22 10:31:58;;;;;;;21.73;14.27;;;;;;;16.34;53.20;98619.41;5069491;28;20028;-39
2022/02/22 10:34:31;;;;;;;21.85;15.90;;;;;;;15.82;54.43;98619.34;5051249;28;20107;-38
2022/02/22 10:36:56;;;;;;;25.13;15.73;;;;;;;16.04;54.44;98607.56;5069426;28;20031;-37
2022/02/22 10:39:22;;;;;;;22.25;15.90;;;;;;;16.12;54.12;98601.66;5069892;28;20407;-39
2022/02/22 10:41:48;;;;;;;27.67;17.90;;;;;;;16.06;54.02;98602.72;5070611;28;20029;-39
2022/02/22 10:44:25;;;;;;;29.90;17.85;;;;;;;16.24;53.86;98598.72;5035734;28;20495;-38
2022/02/22 10:46:50;;;;;;;25.52;17.05;;;;;;;16.34;53.46;98587.19;5036195;28;20126;-38
2022/02/22 10:49:18;;;;;;;27.90;17.88;;;;;;;15.88;54.87;98587.97;5072768;28;20029;-38
2022/02/22 10:51:45;;;;;;;25.30;17.55;;;;;;;15.52;55.70;98595.09;5073374;28;20127;-38
2022/02/22 10:54:19;;;;;;;26.75;17.42;;;;;;;15.26;56.21;98584.25;5073014;28;20028;-39
2022/02/22 10:56:45;;;;;;;26.15;18.33;;;;;;;15.45;55.39;98593.44;5055821;28;20116;-39
2022/02/22 10:59:10;;;;;;;27.48;17.92;;;;;;;14.93;57.58;98578.22;5055235;28;20471;-38
2022/02/22 11:01:36;;;;;;;27.35;17.08;;;;;;;15.07;57.03;98581.25;5073108;28;20081;-39
2022/02/22 11:04:02;;;;;;;26.77;17.10;;;;;;;14.93;57.35;98580.91;5061715;28;20029;-37
2022/02/22 11:06:27;;;;;;;24.83;16.52;;;;;;;14.82;58.36;98580.03;5053042;28;20094;-39
2022/02/22 11:08:54;;;;;;;27.10;16.83;;;;;;;14.93;57.90;98580.91;5044923;28;20068;-37
2022/02/22 11:11:58;;;;;;;26.70;16.80;;;;;;;14.89;58.29;98589.72;5032600;28;20030;-38
2022/02/22 11:14:31;;;;;;;23.75;16.58;;;;;;;15.15;57.57;98586.09;5033159;28;20030;-37
2022/02/22 11:17:02;;;;;;;22.58;14.88;;;;;;;15.59;54.74;98591.09;5032801;28;20036;-39